Clare Christine — V2DT7 — position and weather

sailwx.info

Track history (hours):
 
Tides and Currents Weather Stations Pressure Air Temp Water Temp Dewpoint Dewpoint Depression Visibility Wind Speed Wind Dir Waves Ship Positions

Clare Christine

Last reported at 2014-Nov-26 23:33 UTC. Time now 2014-Nov-27 00:19 UTC.
Position N 46°14' W 002°09'.

Length 89 m; draft 3.3 m.

Type: Cargo ship. MMSI: 305379000.

Date/timePositionNaut miles runAvg speedWind from/ knotsBaromVisibWave heightAir tempDewpointWater temp
2014-Nov-26 23:33N 46°14' W 002°09'1211.3
2014-Nov-26 22:32N 46°20' W 002°23'36410.3
2014-Nov-25 11:21N 51°57' W 005°53'7 8.4
2014-Nov-25 10:33N 52°04' W 005°51'7 7.5
2014-Nov-25 09:33N 52°11' W 005°48'7 7.0
2014-Nov-25 08:33N 52°18' W 005°47'7 7.4
2014-Nov-25 07:33N 52°25' W 005°46'78 9.7
2014-Nov-24 23:33N 53°42' W 006°07'8 0.5
2014-Nov-24 08:33N 53°43' W 006°20'0 0.0
2014-Nov-24 07:32N 53°43' W 006°20'2 0.2
2014-Nov-23 22:22N 53°44' W 006°17'4 5.0
2014-Nov-23 21:33N 53°44' W 006°10'0 0.2
2014-Nov-23 20:33N 53°44' W 006°11'0 0.0
2014-Nov-23 19:33N 53°44' W 006°11'3 2.7
2014-Nov-23 18:33N 53°43' W 006°07'70 8.5
2014-Nov-23 10:17N 52°34' W 005°39'912.0
2014-Nov-23 09:33N 52°26' W 005°40'1212.5
2014-Nov-23 08:33N 52°13' W 005°42'25610.2
2014-Nov-22 07:31N 47°58' W 005°25'136 8.5
2014-Nov-21 15:33N 47°17' W 002°12'0 0.0
2014-Nov-21 08:30N 47°17' W 002°12'0 0.0
2014-Nov-21 07:22N 47°17' W 002°12'0 0.0
2014-Nov-20 07:28N 47°17' W 002°12'0 0.0
2014-Nov-20 06:29N 47°17' W 002°12'0 0.0
2014-Nov-20 05:25N 47°17' W 002°12'0 0.0
2014-Nov-20 04:29N 47°17' W 002°12'0 0.0
2014-Nov-20 03:32N 47°17' W 002°12'0 0.0
2014-Nov-20 02:26N 47°17' W 002°12'14 2.4
2014-Nov-19 20:27N 47°06' W 002°25'323 8.4
2014-Nov-18 06:15N 51°59' W 005°52'7 9.6
2014-Nov-18 05:33N 52°06' W 005°51'10 9.6
2014-Nov-18 04:33N 52°15' W 005°47'10 9.7
2014-Nov-18 03:33N 52°25' W 005°45'1010.1
2014-Nov-18 02:33N 52°35' W 005°43'7710.9
2014-Nov-17 19:31N 53°51' W 005°55'1010.7
2014-Nov-17 18:33N 54°00' W 006°03'4 0.8
2014-Nov-17 13:30N 54°02' W 006°08'0 0.0
2014-Nov-17 07:24N 54°02' W 006°08'0 0.0
2014-Nov-17 06:18N 54°02' W 006°08'0 0.0
2014-Nov-17 05:15N 54°02' W 006°08'0 0.0
2014-Nov-17 02:21N 54°02' W 006°08'0 0.0
2014-Nov-17 01:32N 54°02' W 006°08'0 0.0
2014-Nov-17 00:33N 54°02' W 006°08'0 0.0
2014-Nov-16 23:33N 54°02' W 006°08'  
Track history (hours):
 
Tides and Currents Weather Stations Pressure Air Temp Water Temp Dewpoint Dewpoint Depression Visibility Wind Speed Wind Dir Waves Ship Positions

Clare Christine

Last reported at 2014-Nov-26 23:33 UTC. Time now 2014-Nov-27 00:19 UTC.
Position N 46°14' W 002°09'.

Length 89 m; draft 3.3 m.

Type: Cargo ship. MMSI: 305379000.

Date/timePositionNaut miles runAvg speedWind from/ knotsBaromVisibWave heightAir tempDewpointWater temp
2014-Nov-26 23:33N 46°14' W 002°09'1211.3
2014-Nov-26 22:32N 46°20' W 002°23'36410.3
2014-Nov-25 11:21N 51°57' W 005°53'7 8.4
2014-Nov-25 10:33N 52°04' W 005°51'7 7.5
2014-Nov-25 09:33N 52°11' W 005°48'7 7.0
2014-Nov-25 08:33N 52°18' W 005°47'7 7.4
2014-Nov-25 07:33N 52°25' W 005°46'78 9.7
2014-Nov-24 23:33N 53°42' W 006°07'8 0.5
2014-Nov-24 08:33N 53°43' W 006°20'0 0.0
2014-Nov-24 07:32N 53°43' W 006°20'2 0.2
2014-Nov-23 22:22N 53°44' W 006°17'4 5.0
2014-Nov-23 21:33N 53°44' W 006°10'0 0.2
2014-Nov-23 20:33N 53°44' W 006°11'0 0.0
2014-Nov-23 19:33N 53°44' W 006°11'3 2.7
2014-Nov-23 18:33N 53°43' W 006°07'70 8.5
2014-Nov-23 10:17N 52°34' W 005°39'912.0
2014-Nov-23 09:33N 52°26' W 005°40'1212.5
2014-Nov-23 08:33N 52°13' W 005°42'25610.2
2014-Nov-22 07:31N 47°58' W 005°25'136 8.5
2014-Nov-21 15:33N 47°17' W 002°12'0 0.0
2014-Nov-21 08:30N 47°17' W 002°12'0 0.0
2014-Nov-21 07:22N 47°17' W 002°12'0 0.0
2014-Nov-20 07:28N 47°17' W 002°12'0 0.0
2014-Nov-20 06:29N 47°17' W 002°12'0 0.0
2014-Nov-20 05:25N 47°17' W 002°12'0 0.0
2014-Nov-20 04:29N 47°17' W 002°12'0 0.0
2014-Nov-20 03:32N 47°17' W 002°12'0 0.0
2014-Nov-20 02:26N 47°17' W 002°12'14 2.4
2014-Nov-19 20:27N 47°06' W 002°25'323 8.4
2014-Nov-18 06:15N 51°59' W 005°52'7 9.6
2014-Nov-18 05:33N 52°06' W 005°51'10 9.6
2014-Nov-18 04:33N 52°15' W 005°47'10 9.7
2014-Nov-18 03:33N 52°25' W 005°45'1010.1
2014-Nov-18 02:33N 52°35' W 005°43'7710.9
2014-Nov-17 19:31N 53°51' W 005°55'1010.7
2014-Nov-17 18:33N 54°00' W 006°03'4 0.8
2014-Nov-17 13:30N 54°02' W 006°08'0 0.0
2014-Nov-17 07:24N 54°02' W 006°08'0 0.0
2014-Nov-17 06:18N 54°02' W 006°08'0 0.0
2014-Nov-17 05:15N 54°02' W 006°08'0 0.0
2014-Nov-17 02:21N 54°02' W 006°08'0 0.0
2014-Nov-17 01:32N 54°02' W 006°08'0 0.0
2014-Nov-17 00:33N 54°02' W 006°08'0 0.0
2014-Nov-16 23:33N 54°02' W 006°08'  

Dump ship's entire track history